createdAt,value
2022-11-29T00:01:42.121Z,9.20
2022-11-29T00:04:11.128Z,6.20
2022-11-29T00:06:40.262Z,6.47
2022-11-29T00:09:14.208Z,15.43
2022-11-29T00:12:00.789Z,7.90
2022-11-29T00:14:29.897Z,17.80
2022-11-29T00:17:02.064Z,8.37
2022-11-29T00:19:31.048Z,11.47
2022-11-29T00:21:59.385Z,6.93
2022-11-29T00:24:31.827Z,7.40
2022-11-29T00:27:00.727Z,9.20
2022-11-29T00:29:30.034Z,8.03
2022-11-29T00:31:58.574Z,15.00
2022-11-29T00:34:27.304Z,4.43
2022-11-29T00:36:56.620Z,12.00
2022-11-29T00:39:25.134Z,11.27
2022-11-29T00:41:55.351Z,8.03
2022-11-29T00:44:23.838Z,5.50
2022-11-29T00:46:52.044Z,7.30
2022-11-29T00:49:20.140Z,9.90
2022-11-29T00:51:48.887Z,9.53
2022-11-29T00:54:19.296Z,9.33
2022-11-29T00:56:48.606Z,7.20
2022-11-29T00:59:18.383Z,9.37
2022-11-29T01:01:46.535Z,9.60
2022-11-29T01:04:14.737Z,9.20
2022-11-29T01:06:42.878Z,6.07
2022-11-29T01:09:11.319Z,7.13
2022-11-29T01:11:39.582Z,6.33
2022-11-29T01:14:07.869Z,5.97
2022-11-29T01:16:37.662Z,13.70
2022-11-29T01:19:07.284Z,10.57
2022-11-29T01:21:35.501Z,11.00
2022-11-29T01:24:03.735Z,10.80
2022-11-29T01:26:33.216Z,15.13
2022-11-29T01:29:01.331Z,10.87
2022-11-29T01:31:31.595Z,13.33
2022-11-29T01:34:04.659Z,7.73
2022-11-29T01:36:35.391Z,10.50
2022-11-29T01:39:05.447Z,11.00
2022-11-29T01:41:36.144Z,8.67
2022-11-29T01:44:08.074Z,7.17
2022-11-29T01:46:39.672Z,7.67
2022-11-29T01:49:13.262Z,7.90
2022-11-29T01:51:43.946Z,9.20
2022-11-29T01:54:13.535Z,11.80
2022-11-29T01:56:43.185Z,13.43
2022-11-29T01:59:15.628Z,10.80
2022-11-29T02:01:43.966Z,3.23
2022-11-29T02:04:14.193Z,14.73
2022-11-29T02:06:43.718Z,5.63
2022-11-29T02:09:19.699Z,6.40
2022-11-29T02:11:59.880Z,6.80
2022-11-29T02:14:52.399Z,9.30
2022-11-29T02:17:31.317Z,6.97
2022-11-29T02:20:35.856Z,9.10
2022-11-29T02:23:14.180Z,16.20
2022-11-29T02:25:58.487Z,5.30
2022-11-29T02:28:45.221Z,9.57
2022-11-29T02:31:35.346Z,7.13
2022-11-29T02:34:42.057Z,7.30
2022-11-29T02:37:39.331Z,9.10
2022-11-29T02:40:33.257Z,12.57
2022-11-29T02:43:26.836Z,9.87
2022-11-29T02:46:13.013Z,6.40
2022-11-29T02:48:54.363Z,7.30
2022-11-29T02:51:30.750Z,8.40
2022-11-29T02:54:07.383Z,7.33
2022-11-29T02:56:44.348Z,11.00
2022-11-29T02:59:21.692Z,11.33
2022-11-29T03:01:59.999Z,11.87
2022-11-29T03:04:34.938Z,7.40
2022-11-29T03:07:11.358Z,8.87
2022-11-29T03:09:45.204Z,6.17
2022-11-29T03:12:22.639Z,5.17
2022-11-29T03:14:58.450Z,8.43
2022-11-29T03:17:37.696Z,7.10
2022-11-29T03:20:20.972Z,6.40
2022-11-29T03:23:07.431Z,8.17
2022-11-29T03:25:40.963Z,6.00
2022-11-29T03:28:15.718Z,8.03
2022-11-29T03:30:52.025Z,11.83
2022-11-29T03:33:28.729Z,7.23
2022-11-29T03:36:05.800Z,8.10
2022-11-29T03:38:41.286Z,7.93
2022-11-29T03:41:19.690Z,10.70
2022-11-29T03:43:51.549Z,7.93
2022-11-29T03:46:26.865Z,6.50
2022-11-29T03:49:00.394Z,5.43
2022-11-29T03:51:40.111Z,7.60
2022-11-29T03:54:14.496Z,7.50
2022-11-29T03:56:43.404Z,9.83
2022-11-29T03:59:25.538Z,9.03
2022-11-29T04:02:22.268Z,7.33
2022-11-29T04:05:16.074Z,9.90
2022-11-29T04:08:02.890Z,6.33
2022-11-29T04:10:51.292Z,9.17
2022-11-29T04:13:47.755Z,3.30
2022-11-29T04:17:02.245Z,10.03
2022-11-29T04:20:12.813Z,9.73
2022-11-29T04:22:58.486Z,5.77
2022-11-29T04:25:42.469Z,7.47
2022-11-29T04:28:37.496Z,6.90
2022-11-29T04:31:18.687Z,6.70
2022-11-29T04:34:14.696Z,5.37
2022-11-29T04:37:08.610Z,8.77
2022-11-29T04:39:50.182Z,9.53
2022-11-29T04:42:42.065Z,5.60
2022-11-29T04:45:49.525Z,6.67
2022-11-29T04:48:42.958Z,5.97
2022-11-29T04:51:21.238Z,5.70
2022-11-29T04:53:54.983Z,5.00
2022-11-29T04:56:32.474Z,6.90
2022-11-29T04:59:08.862Z,8.07
2022-11-29T05:01:49.697Z,9.57
2022-11-29T05:04:24.134Z,7.77
2022-11-29T05:07:03.881Z,8.10
2022-11-29T05:09:45.578Z,8.57
2022-11-29T05:12:23.786Z,8.37
2022-11-29T05:15:11.077Z,6.30
2022-11-29T05:17:51.661Z,11.97
2022-11-29T05:20:35.035Z,8.97
2022-11-29T05:23:23.240Z,5.67
2022-11-29T05:25:58.103Z,8.37
2022-11-29T05:28:34.414Z,6.63
2022-11-29T05:31:22.540Z,9.17
2022-11-29T05:34:12.961Z,10.70
2022-11-29T05:36:48.602Z,5.67
2022-11-29T05:39:32.563Z,9.17
2022-11-29T05:42:39.755Z,21.73
2022-11-29T05:45:15.741Z,17.50
2022-11-29T05:47:53.723Z,9.33
2022-11-29T05:50:27.694Z,7.00
2022-11-29T05:53:18.671Z,9.67
2022-11-29T05:55:56.339Z,9.63
2022-11-29T05:58:30.916Z,7.47
2022-11-29T06:01:05.502Z,13.53
2022-11-29T06:03:40.526Z,8.50
2022-11-29T06:06:16.835Z,17.27
2022-11-29T06:08:51.607Z,15.77
2022-11-29T06:11:25.486Z,6.97
2022-11-29T06:14:05.792Z,13.03
2022-11-29T06:16:49.855Z,13.13
2022-11-29T06:19:55.119Z,11.53
2022-11-29T06:22:49.089Z,12.27
2022-11-29T06:25:31.925Z,10.03
2022-11-29T06:28:15.443Z,19.60
2022-11-29T06:30:56.555Z,10.27
2022-11-29T06:33:29.107Z,15.00
2022-11-29T06:36:12.759Z,40.13
2022-11-29T06:38:41.678Z,12.40
2022-11-29T06:41:18.282Z,14.13
2022-11-29T06:43:47.093Z,8.27
2022-11-29T06:46:28.051Z,17.80
2022-11-29T06:49:04.183Z,15.67
2022-11-29T06:51:42.897Z,10.00
2022-11-29T06:54:25.194Z,17.23
2022-11-29T06:57:01.863Z,8.30
2022-11-29T06:59:46.329Z,14.13
2022-11-29T07:02:32.926Z,9.87
2022-11-29T07:05:11.059Z,7.03
2022-11-29T07:07:42.353Z,7.70
2022-11-29T07:10:16.935Z,12.50
2022-11-29T07:12:47.527Z,9.93
2022-11-29T07:15:17.964Z,6.67
2022-11-29T07:17:58.401Z,14.00
2022-11-29T07:20:36.458Z,8.80
2022-11-29T07:23:16.835Z,13.93
2022-11-29T07:25:57.138Z,10.70
2022-11-29T07:28:40.662Z,7.23
2022-11-29T07:31:14.532Z,7.87
2022-11-29T07:33:55.326Z,6.10
2022-11-29T07:36:35.410Z,7.13
2022-11-29T07:39:19.398Z,13.00
2022-11-29T07:41:55.536Z,6.87
2022-11-29T07:44:32.266Z,10.80
2022-11-29T07:47:00.516Z,13.77
2022-11-29T07:49:29.950Z,8.10
2022-11-29T07:51:58.342Z,7.53
2022-11-29T07:54:28.125Z,8.40
2022-11-29T07:56:56.363Z,6.37
2022-11-29T07:59:24.927Z,6.77
2022-11-29T08:01:53.435Z,9.03
2022-11-29T08:04:21.593Z,8.43
2022-11-29T08:06:50.232Z,9.20
2022-11-29T08:09:18.978Z,9.60
2022-11-29T08:11:48.958Z,7.67
2022-11-29T08:14:17.149Z,8.63
2022-11-29T08:16:45.283Z,8.60
2022-11-29T08:19:13.546Z,9.87
2022-11-29T08:21:44.536Z,17.73
2022-11-29T08:24:12.849Z,10.33
2022-11-29T08:26:41.192Z,9.47
2022-11-29T08:29:10.903Z,18.77
2022-11-29T08:31:39.426Z,13.83
2022-11-29T08:34:09.238Z,8.30
2022-11-29T08:36:39.012Z,22.47
2022-11-29T08:39:09.613Z,26.87
2022-11-29T08:41:38.491Z,18.70
2022-11-29T08:44:07.082Z,16.23
2022-11-29T08:46:53.945Z,13.30
2022-11-29T08:49:22.279Z,9.20
2022-11-29T08:51:53.320Z,11.30
2022-11-29T08:54:20.816Z,9.07
2022-11-29T08:57:23.543Z,11.50
2022-11-29T08:59:37.347Z,14.50
2022-11-29T09:02:07.264Z,8.20
2022-11-29T09:04:35.431Z,10.53
2022-11-29T09:07:04.030Z,5.53
2022-11-29T09:09:32.470Z,14.20
2022-11-29T09:12:00.635Z,10.13
2022-11-29T09:14:28.965Z,12.10
2022-11-29T09:16:57.243Z,11.30
2022-11-29T09:19:26.858Z,9.37
2022-11-29T09:21:55.076Z,9.23
2022-11-29T09:24:23.627Z,8.10
2022-11-29T09:26:52.093Z,11.60
2022-11-29T09:29:20.605Z,7.67
2022-11-29T09:31:48.870Z,10.50
2022-11-29T09:34:18.492Z,8.83
2022-11-29T09:36:48.316Z,10.97
2022-11-29T09:39:16.826Z,7.80
2022-11-29T09:42:09.763Z,9.00
2022-11-29T09:44:50.842Z,16.63
2022-11-29T09:47:36.750Z,9.17
2022-11-29T09:50:20.814Z,9.13
2022-11-29T09:52:55.431Z,18.77
2022-11-29T09:55:47.240Z,10.43
2022-11-29T09:58:20.842Z,15.40
2022-11-29T10:00:51.787Z,11.40
2022-11-29T10:03:26.399Z,15.63
2022-11-29T10:05:59.948Z,11.67
2022-11-29T10:08:34.878Z,10.73
2022-11-29T10:11:19.629Z,9.97
2022-11-29T10:13:52.999Z,7.40
2022-11-29T10:16:26.699Z,12.40
2022-11-29T10:19:03.205Z,9.10
2022-11-29T10:21:37.179Z,9.07
2022-11-29T10:24:14.921Z,8.27
2022-11-29T10:26:43.719Z,11.20
2022-11-29T10:29:15.115Z,15.23
2022-11-29T10:31:46.945Z,12.10
2022-11-29T10:34:17.404Z,12.10
2022-11-29T10:36:47.846Z,12.47
2022-11-29T10:39:24.358Z,14.70
2022-11-29T10:41:56.774Z,16.80
2022-11-29T10:44:26.419Z,22.27
2022-11-29T10:46:55.501Z,20.00
2022-11-29T10:49:29.048Z,24.37
2022-11-29T10:51:57.236Z,23.43
2022-11-29T10:54:38.152Z,24.90
2022-11-29T10:57:13.633Z,28.57
2022-11-29T10:59:42.065Z,26.90
2022-11-29T11:02:19.513Z,20.17
2022-11-29T11:04:50.100Z,26.23
2022-11-29T11:07:26.748Z,29.27
2022-11-29T11:09:58.600Z,26.70
2022-11-29T11:12:30.206Z,20.43
2022-11-29T11:15:17.629Z,30.27
2022-11-29T11:17:58.762Z,36.73
2022-11-29T11:20:30.188Z,26.70
2022-11-29T11:23:00.836Z,32.13
2022-11-29T11:25:34.671Z,35.50
2022-11-29T11:28:18.255Z,27.50
2022-11-29T11:30:52.720Z,27.90
2022-11-29T11:33:22.699Z,24.33
2022-11-29T11:36:06.383Z,24.67
2022-11-29T11:38:36.774Z,31.27
2022-11-29T11:41:44.433Z,33.87
2022-11-29T11:47:20.894Z,32.87
2022-11-29T11:49:51.138Z,34.10
2022-11-29T11:52:23.274Z,37.33
2022-11-29T11:54:55.569Z,34.13
2022-11-29T11:57:27.502Z,33.63
2022-11-29T12:00:02.005Z,37.67
2022-11-29T12:02:42.086Z,47.07
2022-11-29T12:05:17.035Z,33.37
2022-11-29T12:10:39.907Z,33.80
2022-11-29T12:13:18.665Z,34.67
2022-11-29T12:15:50.879Z,32.80
2022-11-29T12:18:26.082Z,26.53
2022-11-29T12:20:58.147Z,28.73
2022-11-29T12:23:36.698Z,27.80
2022-11-29T12:26:16.108Z,30.73
2022-11-29T12:28:50.810Z,22.83
2022-11-29T12:31:39.802Z,32.83
2022-11-29T12:34:22.662Z,26.93
2022-11-29T12:37:02.104Z,25.20
2022-11-29T12:39:43.798Z,22.73
2022-11-29T12:42:25.507Z,27.37
2022-11-29T12:45:04.805Z,20.70
2022-11-29T12:47:51.504Z,22.70
2022-11-29T12:50:33.530Z,19.70
2022-11-29T12:53:14.927Z,17.80
2022-11-29T12:55:52.677Z,19.27
2022-11-29T12:58:26.599Z,26.03
2022-11-29T13:01:04.586Z,19.07
2022-11-29T13:03:45.390Z,22.93
2022-11-29T13:06:24.222Z,19.00
2022-11-29T13:09:13.053Z,19.90
2022-11-29T13:11:47.297Z,15.80
2022-11-29T13:17:26.639Z,14.73
2022-11-29T13:19:57.725Z,21.13
2022-11-29T13:22:30.901Z,14.77
2022-11-29T13:25:03.163Z,16.90
2022-11-29T13:27:34.319Z,18.27
2022-11-29T13:30:04.565Z,17.10
2022-11-29T13:32:37.050Z,20.23
2022-11-29T13:35:12.573Z,17.70
2022-11-29T13:37:50.588Z,19.00
2022-11-29T13:40:33.482Z,18.77
2022-11-29T13:43:07.241Z,23.23
2022-11-29T13:45:41.628Z,13.93
2022-11-29T13:48:35.196Z,17.07
2022-11-29T13:51:26.656Z,21.10
2022-11-29T13:53:56.620Z,13.63
2022-11-29T13:56:32.897Z,24.40
2022-11-29T13:59:02.146Z,18.47
2022-11-29T14:01:30.578Z,23.43
2022-11-29T14:04:23.733Z,18.63
2022-11-29T14:07:02.147Z,21.27
2022-11-29T14:09:35.981Z,27.20
2022-11-29T14:12:18.980Z,19.13
2022-11-29T14:14:53.205Z,17.93
2022-11-29T14:17:50.362Z,19.10
2022-11-29T14:21:00.590Z,18.77
2022-11-29T14:23:34.731Z,16.43
2022-11-29T14:26:30.644Z,21.23
2022-11-29T14:29:00.176Z,19.07
2022-11-29T14:31:55.015Z,18.80
2022-11-29T14:34:39.032Z,18.53
2022-11-29T14:37:35.872Z,15.77
2022-11-29T14:40:20.998Z,25.83
2022-11-29T14:42:50.102Z,19.70
2022-11-29T14:45:25.510Z,18.57
2022-11-29T14:47:53.892Z,20.73
2022-11-29T14:50:35.175Z,20.40
2022-11-29T14:53:05.720Z,17.67
2022-11-29T14:55:36.727Z,24.03
2022-11-29T14:58:23.168Z,24.77
2022-11-29T15:01:08.123Z,21.63
2022-11-29T15:03:45.035Z,19.17
2022-11-29T15:06:19.107Z,26.33
2022-11-29T15:09:04.158Z,26.70
2022-11-29T15:11:41.599Z,32.83
2022-11-29T15:14:16.952Z,27.03
2022-11-29T15:17:09.609Z,22.93
2022-11-29T15:19:58.032Z,28.00
2022-11-29T15:22:28.423Z,26.57
2022-11-29T15:25:01.521Z,24.70
2022-11-29T15:27:30.490Z,26.10
2022-11-29T15:29:59.960Z,25.57
2022-11-29T15:32:32.725Z,23.70
2022-11-29T15:35:01.399Z,27.87
2022-11-29T15:37:44.618Z,24.93
2022-11-29T15:40:17.606Z,27.07
2022-11-29T15:42:50.484Z,24.20
2022-11-29T15:45:31.817Z,27.93
2022-11-29T15:48:25.417Z,22.60
2022-11-29T15:51:03.556Z,22.80
2022-11-29T15:53:36.642Z,23.23
2022-11-29T15:56:12.404Z,22.30
2022-11-29T15:58:41.062Z,19.70
2022-11-29T16:01:10.104Z,23.43
2022-11-29T16:03:41.808Z,26.70
2022-11-29T16:06:25.279Z,28.43
2022-11-29T16:08:54.598Z,27.07
2022-11-29T16:11:27.885Z,20.70
2022-11-29T16:14:13.649Z,20.67
2022-11-29T16:16:43.818Z,23.30
2022-11-29T16:19:23.796Z,23.30
2022-11-29T16:22:05.585Z,17.77
2022-11-29T16:24:35.613Z,22.00
2022-11-29T16:27:07.103Z,18.60
2022-11-29T16:29:37.886Z,21.77
2022-11-29T16:32:23.183Z,23.07
2022-11-29T16:34:51.811Z,25.97
2022-11-29T16:37:23.911Z,17.00
2022-11-29T16:39:56.485Z,18.13
2022-11-29T16:42:28.497Z,17.53
2022-11-29T16:45:29.043Z,14.37
2022-11-29T16:47:59.595Z,20.03
2022-11-29T16:50:29.438Z,24.40
2022-11-29T16:52:59.156Z,16.90
2022-11-29T16:55:27.346Z,22.13
2022-11-29T16:57:57.019Z,19.53
2022-11-29T17:00:32.403Z,15.40
2022-11-29T17:03:00.843Z,21.40
2022-11-29T17:05:29.240Z,15.50
2022-11-29T17:07:57.776Z,18.40
2022-11-29T17:10:26.668Z,23.77
2022-11-29T17:12:56.305Z,19.80
2022-11-29T17:15:24.522Z,20.83
2022-11-29T17:17:52.669Z,20.00
2022-11-29T17:20:21.082Z,22.37
2022-11-29T17:22:49.622Z,20.63
2022-11-29T17:25:18.038Z,29.00
2022-11-29T17:27:46.366Z,21.50
2022-11-29T17:30:17.012Z,15.97
2022-11-29T17:32:45.414Z,19.17
2022-11-29T17:35:13.545Z,29.03
2022-11-29T17:37:41.956Z,25.00
2022-11-29T17:40:10.862Z,23.03
2022-11-29T17:42:39.570Z,21.23
2022-11-29T17:45:09.455Z,21.50
2022-11-29T17:47:39.627Z,21.20
2022-11-29T17:50:09.387Z,19.43
2022-11-29T17:52:39.220Z,24.67
2022-11-29T17:55:08.852Z,26.70
2022-11-29T17:57:37.518Z,21.37
2022-11-29T18:00:09.606Z,26.50
2022-11-29T18:02:40.788Z,21.13
2022-11-29T18:05:10.421Z,22.40
2022-11-29T18:07:57.918Z,26.17
2022-11-29T18:10:27.402Z,23.93
2022-11-29T18:12:56.959Z,25.17
2022-11-29T18:15:25.109Z,26.87
2022-11-29T18:17:54.758Z,24.20
2022-11-29T18:20:22.971Z,26.80
2022-11-29T18:22:51.122Z,25.27
2022-11-29T18:25:38.313Z,28.83
2022-11-29T18:28:08.965Z,28.93
2022-11-29T18:30:37.431Z,26.67
2022-11-29T18:33:07.215Z,31.53
2022-11-29T18:35:35.369Z,28.93
2022-11-29T18:38:18.895Z,31.40
2022-11-29T18:40:47.105Z,25.93
2022-11-29T18:43:17.919Z,35.33
2022-11-29T18:45:46.113Z,27.90
2022-11-29T18:48:17.180Z,31.50
2022-11-29T18:50:45.591Z,32.63
2022-11-29T18:53:14.590Z,30.33
2022-11-29T18:55:43.614Z,28.97
2022-11-29T18:58:11.845Z,26.50
2022-11-29T19:00:41.078Z,30.80
2022-11-29T19:03:11.363Z,32.00
2022-11-29T19:05:41.483Z,32.70
2022-11-29T19:08:10.181Z,36.37
2022-11-29T19:10:40.690Z,38.80
2022-11-29T19:13:09.467Z,37.07
2022-11-29T19:15:38.006Z,29.80
2022-11-29T19:18:06.451Z,31.90
2022-11-29T19:20:34.926Z,30.00
2022-11-29T19:23:06.332Z,34.60
2022-11-29T19:25:36.116Z,30.97
2022-11-29T19:28:12.536Z,33.03
2022-11-29T19:30:42.887Z,33.47
2022-11-29T19:33:13.741Z,33.00
2022-11-29T19:35:42.609Z,31.63
2022-11-29T19:38:12.765Z,34.60
2022-11-29T19:40:51.029Z,33.00
2022-11-29T19:43:19.422Z,31.43
2022-11-29T19:45:48.088Z,29.00
2022-11-29T19:48:20.183Z,32.97
2022-11-29T19:50:48.847Z,36.83
2022-11-29T19:53:19.100Z,31.77
2022-11-29T19:55:47.458Z,36.27
2022-11-29T19:58:15.838Z,34.67
2022-11-29T20:00:48.866Z,42.23
2022-11-29T20:03:17.360Z,35.50
2022-11-29T20:05:55.314Z,34.93
2022-11-29T20:08:25.362Z,36.00
2022-11-29T20:10:54.451Z,45.07
2022-11-29T20:13:23.335Z,43.20
2022-11-29T20:15:51.616Z,43.53
2022-11-29T20:18:20.227Z,36.80
2022-11-29T20:20:49.905Z,35.87
2022-11-29T20:23:19.529Z,38.97
2022-11-29T20:25:51.663Z,36.50
2022-11-29T20:28:21.005Z,41.20
2022-11-29T20:30:49.327Z,37.73
2022-11-29T20:33:21.245Z,35.83
2022-11-29T20:35:51.945Z,33.20
2022-11-29T20:38:33.425Z,38.70
2022-11-29T20:41:09.480Z,43.37
2022-11-29T20:43:43.863Z,39.33
2022-11-29T20:46:14.476Z,48.50
2022-11-29T20:48:43.229Z,45.03
2022-11-29T20:51:13.143Z,44.50
2022-11-29T20:53:48.183Z,41.40
2022-11-29T20:56:18.299Z,39.97
2022-11-29T20:58:47.668Z,49.80
2022-11-29T21:01:21.455Z,40.77
2022-11-29T21:03:49.845Z,45.37
2022-11-29T21:06:18.599Z,49.20
2022-11-29T21:08:47.180Z,50.90
2022-11-29T21:11:17.604Z,53.47
2022-11-29T21:13:47.777Z,53.07
2022-11-29T21:16:17.310Z,57.40
2022-11-29T21:18:46.266Z,57.33
2022-11-29T21:21:24.651Z,57.43
2022-11-29T21:24:01.397Z,52.40
2022-11-29T21:26:40.058Z,52.63
2022-11-29T21:29:17.157Z,61.57
2022-11-29T21:31:45.981Z,65.97
2022-11-29T21:34:14.818Z,61.30
2022-11-29T21:36:43.379Z,45.03
2022-11-29T21:39:14.294Z,52.17
2022-11-29T21:41:44.146Z,53.47
2022-11-29T21:44:12.365Z,51.17
2022-11-29T21:46:40.487Z,55.70
2022-11-29T21:49:08.681Z,52.20
2022-11-29T21:51:36.951Z,59.90
2022-11-29T21:54:05.314Z,60.00
2022-11-29T21:56:33.730Z,55.60
2022-11-29T21:59:03.424Z,70.40
2022-11-29T22:01:33.988Z,64.67
2022-11-29T22:04:02.522Z,63.83
2022-11-29T22:06:30.686Z,63.40
2022-11-29T22:08:59.917Z,54.37
2022-11-29T22:11:34.390Z,62.50
2022-11-29T22:14:14.738Z,72.00
2022-11-29T22:16:44.613Z,61.13
2022-11-29T22:19:15.467Z,61.00
2022-11-29T22:21:45.852Z,79.13
2022-11-29T22:24:15.615Z,95.17
2022-11-29T22:26:44.629Z,65.20
2022-11-29T22:29:14.808Z,67.03
2022-11-29T22:31:44.037Z,62.73
2022-11-29T22:34:12.558Z,64.70
2022-11-29T22:36:41.822Z,57.77
2022-11-29T22:39:10.190Z,47.00
2022-11-29T22:41:39.512Z,54.60
2022-11-29T22:44:08.737Z,46.57
2022-11-29T22:46:41.271Z,51.57
2022-11-29T22:49:09.524Z,50.20
2022-11-29T22:51:39.298Z,45.30
2022-11-29T22:54:09.171Z,48.63
2022-11-29T22:56:40.675Z,48.10
2022-11-29T22:59:10.215Z,51.00
2022-11-29T23:01:41.622Z,47.37
2022-11-29T23:04:11.538Z,45.70
2022-11-29T23:06:41.619Z,45.53
2022-11-29T23:09:15.196Z,48.23
2022-11-29T23:11:44.133Z,52.93
2022-11-29T23:14:12.673Z,45.90
2022-11-29T23:16:42.279Z,44.37
2022-11-29T23:19:11.134Z,48.47
2022-11-29T23:21:41.228Z,48.33
2022-11-29T23:24:09.716Z,50.20
2022-11-29T23:26:40.169Z,58.80
2022-11-29T23:29:10.807Z,50.53
2022-11-29T23:31:39.612Z,47.47
2022-11-29T23:34:09.435Z,48.97
2022-11-29T23:36:37.742Z,49.93
2022-11-29T23:39:06.616Z,48.93
2022-11-29T23:41:35.014Z,67.80
2022-11-29T23:44:05.014Z,57.80
2022-11-29T23:46:34.087Z,56.00
2022-11-29T23:49:02.461Z,53.93
2022-11-29T23:51:32.132Z,48.83
2022-11-29T23:54:00.577Z,52.63
2022-11-29T23:56:28.748Z,49.43
2022-11-29T23:58:58.152Z,50.70
